Time;durP1;ratioP1;P1;durP2;ratioP2;P2;SDS_P1;SDS_P2;PMS_P1;PMS_P2;Temp;Humidity;BMP_temperature;BMP_pressure;BME280_temperature;BME280_humidity;BME280_pressure;Samples;Min_cycle;Max_cycle;Signal;HPM_P1;HPM_P2
2022/03/06 00:00:17;;;;;;;4.72;1.42;;;;;;;14.83;65.34;100609.84;2110592;28;20043;-76
2022/03/06 00:01:40;;;;;;;4.03;1.63;;;;;;;14.81;65.52;100615.16;2104603;28;20083;-77
2022/03/06 00:03:04;;;;;;;4.10;1.60;;;;;;;14.80;65.70;100613.38;2107198;28;20056;-77
2022/03/06 00:04:27;;;;;;;3.20;1.65;;;;;;;14.80;65.87;100609.84;2107195;28;20123;-76
2022/03/06 00:05:49;;;;;;;3.97;2.17;;;;;;;14.80;65.68;100616.03;2101782;28;20048;-76
2022/03/06 00:07:11;;;;;;;2.72;1.35;;;;;;;14.81;65.80;100604.53;2110264;28;20062;-76
2022/03/06 00:08:35;;;;;;;5.28;2.38;;;;;;;14.83;65.67;100599.22;2113157;28;20073;-76
2022/03/06 00:09:58;;;;;;;9.35;2.22;;;;;;;14.84;65.66;100593.88;2104512;28;20527;-75
2022/03/06 00:11:21;;;;;;;8.63;3.95;;;;;;;14.85;65.75;100597.41;2110117;28;20039;-75
2022/03/06 00:12:44;;;;;;;3.03;1.60;;;;;;;14.84;65.71;100591.22;2112946;28;20092;-76
2022/03/06 00:14:06;;;;;;;4.32;2.22;;;;;;;14.85;65.75;100606.28;2115618;28;20050;-75
2022/03/06 00:15:29;;;;;;;3.53;2.00;;;;;;;14.81;65.94;100598.31;2107090;28;20090;-75
2022/03/06 00:16:53;;;;;;;8.98;2.95;;;;;;;14.79;66.07;100598.31;2109976;28;20469;-75
2022/03/06 00:18:18;;;;;;;15.43;2.47;;;;;;;14.78;66.12;100583.25;2104911;28;20602;-75
2022/03/06 00:19:39;;;;;;;6.80;2.25;;;;;;;14.77;66.22;100590.34;2110626;28;20491;-76
2022/03/06 00:21:02;;;;;;;6.72;2.58;;;;;;;14.73;66.55;100585.06;2112805;28;20055;-74
2022/03/06 00:22:23;;;;;;;5.10;1.67;;;;;;;14.72;66.82;100591.28;2104511;28;20039;-74
2022/03/06 00:23:45;;;;;;;7.72;2.10;;;;;;;14.68;67.13;100586.88;2109960;28;20047;-76
2022/03/06 00:25:08;;;;;;;6.32;2.05;;;;;;;14.64;67.35;100585.97;2115847;28;20050;-75
2022/03/06 00:26:31;;;;;;;5.07;2.63;;;;;;;14.61;67.45;100580.69;2112985;28;20047;-74
2022/03/06 00:27:52;;;;;;;6.53;1.90;;;;;;;14.59;67.63;100570.94;2106600;28;20041;-76
2022/03/06 00:29:14;;;;;;;9.75;3.03;;;;;;;14.55;67.89;100572.75;2112784;28;20096;-75
2022/03/06 00:30:38;;;;;;;7.32;2.50;;;;;;;14.52;67.86;100566.53;2104527;28;20130;-75
2022/03/06 00:32:01;;;;;;;6.47;2.45;;;;;;;14.51;67.97;100570.09;2101803;28;20143;-75
2022/03/06 00:33:25;;;;;;;4.53;2.13;;;;;;;14.51;67.88;100565.66;2104313;28;20174;-76
2022/03/06 00:34:48;;;;;;;5.53;2.63;;;;;;;14.48;67.99;100565.69;2110274;28;20479;-75
2022/03/06 00:36:10;;;;;;;9.65;2.70;;;;;;;14.46;67.94;100567.47;2104414;28;20122;-75
2022/03/06 00:37:33;;;;;;;6.50;1.95;;;;;;;14.46;68.13;100563.91;2110158;28;20043;-75
2022/03/06 00:38:55;;;;;;;9.13;3.33;;;;;;;14.45;68.20;100571.00;2107172;28;20040;-75
2022/03/06 00:40:17;;;;;;;1.92;1.27;;;;;;;14.47;68.52;100568.34;2110011;28;20142;-76
2022/03/06 00:41:39;;;;;;;5.10;2.58;;;;;;;14.48;68.34;100572.78;2112690;28;20126;-75
2022/03/06 00:43:02;;;;;;;5.63;2.28;;;;;;;14.48;68.27;100576.31;2115417;28;20074;-75
2022/03/06 00:44:23;;;;;;;6.07;2.30;;;;;;;14.50;68.38;100565.69;2104338;28;20036;-75
2022/03/06 00:45:46;;;;;;;6.85;2.63;;;;;;;14.51;68.41;100565.66;2109851;28;20134;-74
2022/03/06 00:47:07;;;;;;;8.13;2.78;;;;;;;14.51;68.46;100552.38;2112726;28;20080;-76
2022/03/06 00:48:31;;;;;;;15.65;5.45;;;;;;;14.54;68.45;100556.81;2112708;28;20510;-75
2022/03/06 00:49:54;;;;;;;18.58;8.93;;;;;;;14.53;68.62;100558.59;2106885;28;20092;-75
2022/03/06 00:51:17;;;;;;;10.95;3.42;;;;;;;14.52;68.60;100555.91;2110043;28;20151;-75
2022/03/06 00:52:39;;;;;;;6.00;2.33;;;;;;;14.50;68.94;100555.94;2104089;28;20472;-75
2022/03/06 00:54:02;;;;;;;9.90;3.88;;;;;;;14.48;68.93;100560.38;2109788;28;20054;-76
2022/03/06 00:55:24;;;;;;;17.00;4.82;;;;;;;14.48;69.18;100556.84;2104090;28;20051;-76
2022/03/06 00:56:48;;;;;;;4.25;1.85;;;;;;;14.44;69.13;100552.44;2101893;28;20086;-76
2022/03/06 00:58:12;;;;;;;6.00;2.00;;;;;;;14.45;68.96;100555.06;2110006;28;20555;-76
2022/03/06 00:59:34;;;;;;;7.45;2.40;;;;;;;14.47;69.05;100547.97;2106854;28;20040;-76
2022/03/06 01:00:57;;;;;;;5.50;2.60;;;;;;;14.48;68.82;100548.88;2110020;28;20050;-75
2022/03/06 01:02:19;;;;;;;8.60;2.38;;;;;;;14.46;68.80;100545.31;2095707;28;20149;-76
2022/03/06 01:03:43;;;;;;;9.45;2.95;;;;;;;14.39;68.96;100540.91;2107348;28;20032;-76
2022/03/06 01:05:06;;;;;;;6.28;2.92;;;;;;;14.31;69.22;100541.78;2112568;28;20506;-75
2022/03/06 01:06:28;;;;;;;9.07;2.97;;;;;;;14.24;69.49;100539.19;2104072;28;20403;-75
2022/03/06 01:07:51;;;;;;;9.38;3.15;;;;;;;14.20;69.88;100548.03;2109841;28;20553;-76
2022/03/06 01:09:13;;;;;;;12.98;3.75;;;;;;;14.16;70.05;100539.22;2104029;28;20052;-76
2022/03/06 01:10:36;;;;;;;;;;;;;;;14.13;70.55;100536.53;2110348;28;20055;-76
2022/03/06 01:11:58;;;;;;;;;;;;;;;14.11;70.50;100537.47;2112973;28;19923;-76
2022/03/06 01:13:22;;;;;;;10.75;5.70;;;;;;;14.10;70.74;100539.22;2112539;28;20402;-75
2022/03/06 01:14:45;;;;;;;102.93;37.08;;;;;;;14.04;71.02;100533.03;2112827;28;20036;-76
2022/03/06 01:16:06;;;;;;;71.63;33.22;;;;;;;13.98;71.06;100526.84;2112402;28;20457;-77
2022/03/06 01:17:29;;;;;;;52.25;23.58;;;;;;;13.98;71.20;100525.94;2103799;28;20075;-75
2022/03/06 01:18:52;;;;;;;42.72;18.83;;;;;;;13.98;71.45;100521.53;2109925;28;20047;-77
2022/03/06 01:20:17;;;;;;;29.35;13.10;;;;;;;13.98;71.63;100520.66;2103920;28;20048;-77
2022/03/06 01:21:38;;;;;;;16.25;7.00;;;;;;;13.95;71.84;100516.25;2110365;28;20067;-78
2022/03/06 01:23:01;;;;;;;19.85;7.88;;;;;;;13.95;72.10;100515.34;2103996;28;20047;-78
2022/03/06 01:24:23;;;;;;;16.27;6.63;;;;;;;13.88;72.48;100509.19;2106845;28;20044;-78
2022/03/06 01:25:46;;;;;;;19.63;8.90;;;;;;;13.80;72.90;100518.03;2109644;28;20032;-77
2022/03/06 01:27:09;;;;;;;12.48;6.68;;;;;;;13.76;73.11;100518.94;2112449;28;20059;-77
2022/03/06 01:28:32;;;;;;;14.27;4.82;;;;;;;13.78;73.31;100526.03;2106609;28;20056;-78
2022/03/06 01:29:54;;;;;;;12.02;6.82;;;;;;;13.76;73.23;100521.59;2106679;28;20044;-78
2022/03/06 01:31:17;;;;;;;17.35;8.70;;;;;;;13.76;73.38;100522.47;2112357;28;20621;-78
2022/03/06 01:32:40;;;;;;;19.20;7.55;;;;;;;13.78;73.38;100511.88;2106714;28;20472;-78
2022/03/06 01:34:03;;;;;;;26.83;10.25;;;;;;;13.76;73.42;100516.28;2101271;28;20036;-78
2022/03/06 01:35:26;;;;;;;18.30;9.63;;;;;;;13.73;73.58;100518.94;2101453;28;20051;-78
2022/03/06 01:36:49;;;;;;;13.02;5.65;;;;;;;13.76;73.81;100516.28;2109809;28;20109;-79
2022/03/06 01:38:11;;;;;;;9.38;4.57;;;;;;;13.76;73.97;100516.28;2112430;28;20051;-79
2022/03/06 01:39:34;;;;;;;8.90;3.28;;;;;;;13.72;74.20;100518.03;2111513;28;20507;-81
2022/03/06 01:40:56;;;;;;;10.98;4.57;;;;;;;13.73;74.35;100516.28;2104256;28;20048;-82
2022/03/06 01:42:19;;;;;;;21.58;9.25;;;;;;;13.73;74.43;100511.84;2101515;28;20050;-81
2022/03/06 01:43:40;;;;;;;13.95;5.63;;;;;;;13.71;74.63;100512.75;2104109;28;20499;-81
2022/03/06 01:45:02;;;;;;;13.23;5.57;;;;;;;13.62;75.15;100507.47;2101164;28;20040;-81
2022/03/06 01:46:25;;;;;;;15.25;6.03;;;;;;;13.51;75.51;100508.38;2101395;28;20051;-81
2022/03/06 01:47:51;;;;;;;15.50;5.85;;;;;;;13.46;75.73;100507.44;2109679;28;20039;-81
2022/03/06 01:49:16;;;;;;;15.32;5.00;;;;;;;13.42;75.92;100505.69;2104642;28;20127;-81
2022/03/06 01:50:40;;;;;;;12.05;5.35;;;;;;;13.42;75.90;100492.44;2102232;28;20048;-80
2022/03/06 01:52:02;;;;;;;12.70;4.38;;;;;;;13.48;76.10;100500.38;2101630;28;20104;-79
2022/03/06 01:53:24;;;;;;;9.10;4.25;;;;;;;13.53;76.10;100492.41;2109481;28;20134;-80
2022/03/06 01:54:46;;;;;;;9.45;3.63;;;;;;;13.53;76.02;100501.25;2103725;28;20048;-80
2022/03/06 01:56:09;;;;;;;10.05;4.40;;;;;;;13.48;76.27;100492.44;2109794;28;20039;-80
2022/03/06 01:57:33;;;;;;;8.70;3.60;;;;;;;13.39;76.45;100487.13;2103964;28;20061;-79
2022/03/06 01:58:55;;;;;;;12.07;5.35;;;;;;;13.37;76.63;100490.69;2110018;28;20043;-79
2022/03/06 02:00:22;;;;;;;9.40;4.07;;;;;;;13.34;76.93;100486.25;2103871;28;20395;-79
2022/03/06 02:01:44;;;;;;;18.50;9.43;;;;;;;13.30;77.08;100489.78;2110959;28;20123;-79
2022/03/06 02:03:07;;;;;;;35.08;24.10;;;;;;;13.27;77.23;100487.13;2095563;28;20060;-79
2022/03/06 02:04:31;;;;;;;23.83;13.85;;;;;;;13.31;77.40;100490.69;2103883;28;20058;-79
2022/03/06 02:05:54;;;;;;;14.07;6.72;;;;;;;13.33;77.37;100492.44;2101523;28;20044;-79
2022/03/06 02:07:15;;;;;;;49.15;22.13;;;;;;;13.33;77.38;100484.47;2109621;28;20043;-79
2022/03/06 02:08:38;;;;;;;22.35;12.15;;;;;;;13.36;77.33;100486.25;2103733;28;20114;-79
2022/03/06 02:10:00;;;;;;;36.25;23.98;;;;;;;13.37;77.27;100480.06;2103868;28;20052;-79
2022/03/06 02:11:24;;;;;;;38.10;24.77;;;;;;;13.36;77.29;100476.53;2101162;28;20047;-79
2022/03/06 02:12:46;;;;;;;24.30;16.90;;;;;;;13.36;77.36;100487.16;2101459;28;20039;-79
2022/03/06 02:14:09;;;;;;;16.20;10.48;;;;;;;13.38;77.43;100481.84;2092977;28;20052;-79
2022/03/06 02:15:31;;;;;;;23.65;13.52;;;;;;;13.38;77.43;100485.38;2090448;28;20042;-79
2022/03/06 02:16:53;;;;;;;14.90;9.25;;;;;;;13.33;77.81;100481.81;2106885;28;20168;-80
2022/03/06 02:18:16;;;;;;;20.33;8.02;;;;;;;13.31;77.76;100490.69;2112087;28;20444;-79
2022/03/06 02:19:57;;;;;;;15.45;10.18;;;;;;;13.30;77.88;100487.16;2106294;28;20149;-79
2022/03/06 02:21:21;;;;;;;9.60;4.30;;;;;;;13.31;78.00;100495.97;2114450;28;20047;-80
2022/03/06 02:22:44;;;;;;;10.60;4.82;;;;;;;13.31;78.02;100486.28;2112267;28;20047;-79
2022/03/06 02:24:07;;;;;;;8.82;4.80;;;;;;;13.29;78.08;100474.78;2097804;28;20086;-79
2022/03/06 02:25:30;;;;;;;10.40;5.10;;;;;;;13.28;78.21;100470.34;2115387;27;20469;-79
2022/03/06 02:26:53;;;;;;;8.35;4.30;;;;;;;13.26;78.27;100469.47;2106448;28;20058;-79
2022/03/06 02:28:15;;;;;;;12.13;5.03;;;;;;;13.31;78.27;100473.00;2101123;28;20142;-79
2022/03/06 02:29:40;;;;;;;7.70;3.95;;;;;;;13.31;78.20;100466.81;2101065;28;20128;-79
2022/03/06 02:31:03;;;;;;;9.07;4.18;;;;;;;13.27;78.07;100465.91;2101784;28;20036;-78
2022/03/06 02:32:24;;;;;;;12.32;4.00;;;;;;;13.27;78.18;100465.03;2095326;28;20079;-78
2022/03/06 02:33:47;;;;;;;9.73;3.47;;;;;;;13.26;78.34;100464.16;2106352;28;20458;-77
2022/03/06 02:35:09;;;;;;;9.45;3.67;;;;;;;13.28;78.54;100458.84;2103442;28;20091;-77
2022/03/06 02:36:33;;;;;;;8.60;3.05;;;;;;;13.27;78.65;100447.38;2109204;28;20562;-77
2022/03/06 02:37:55;;;;;;;13.23;6.90;;;;;;;13.26;78.65;100447.41;2103626;28;20136;-77
2022/03/06 02:39:18;;;;;;;5.55;2.50;;;;;;;13.24;78.81;100444.75;2111814;28;20051;-77
2022/03/06 02:40:42;;;;;;;6.60;3.00;;;;;;;13.22;78.92;100442.97;2106102;28;20040;-76
2022/03/06 02:42:04;;;;;;;9.88;2.45;;;;;;;13.15;78.97;100439.44;2109801;28;20062;-78
2022/03/06 02:43:26;;;;;;;7.05;2.63;;;;;;;13.07;79.48;100430.56;2103611;28;20032;-78
2022/03/06 02:44:49;;;;;;;6.80;2.47;;;;;;;13.02;79.83;100427.03;2109206;28;20390;-78
2022/03/06 02:46:11;;;;;;;8.23;2.70;;;;;;;13.00;80.04;100442.03;2103561;28;20056;-77
2022/03/06 02:47:33;;;;;;;5.03;2.08;;;;;;;12.98;80.28;100431.44;2103628;28;20085;-77
2022/03/06 02:48:55;;;;;;;9.02;3.58;;;;;;;12.98;80.51;100419.97;2108999;28;20050;-77
2022/03/06 02:50:19;;;;;;;10.18;2.35;;;;;;;12.97;80.69;100429.69;2111953;28;20055;-77
2022/03/06 02:51:44;;;;;;;14.93;3.58;;;;;;;12.95;80.76;100417.31;2105533;28;20101;-78
2022/03/06 02:53:09;;;;;;;10.18;3.72;;;;;;;12.94;80.84;100413.78;2103194;28;20955;-78
2022/03/06 02:54:31;;;;;;;15.43;3.60;;;;;;;12.92;80.73;100423.50;2111714;28;20331;-78
2022/03/06 02:55:54;;;;;;;7.72;3.22;;;;;;;12.90;80.73;100421.72;2107775;28;20134;-78
2022/03/06 02:57:15;;;;;;;8.38;2.78;;;;;;;12.86;80.75;100425.28;2105153;28;20044;-78
2022/03/06 02:58:39;;;;;;;6.70;2.72;;;;;;;12.83;80.84;100419.94;2102562;28;20052;-78
2022/03/06 03:00:00;;;;;;;8.90;2.90;;;;;;;12.82;80.69;100418.19;2111279;28;20044;-78
2022/03/06 03:01:23;;;;;;;7.65;2.80;;;;;;;12.82;80.69;100418.19;2122047;27;20047;-78
2022/03/06 03:02:46;;;;;;;8.30;2.75;;;;;;;12.84;80.68;100416.44;2116349;28;20036;-78
2022/03/06 03:04:09;;;;;;;7.95;2.33;;;;;;;12.87;80.78;100422.59;2116269;28;20084;-78
2022/03/06 03:05:31;;;;;;;5.90;2.42;;;;;;;12.90;80.96;100416.44;2104994;28;20043;-78
2022/03/06 03:06:54;;;;;;;9.57;2.78;;;;;;;12.93;80.74;100405.84;2105048;28;20546;-79
2022/03/06 03:08:17;;;;;;;8.23;3.45;;;;;;;12.95;80.51;100401.41;2111255;28;20058;-79
2022/03/06 03:09:38;;;;;;;9.60;3.38;;;;;;;12.97;80.36;100389.94;2104973;28;20036;-78
2022/03/06 03:11:01;;;;;;;10.55;2.80;;;;;;;12.97;80.06;100381.09;2104998;28;20055;-80
2022/03/06 03:12:23;;;;;;;8.35;3.25;;;;;;;12.97;80.20;100368.75;2111080;28;20051;-80
2022/03/06 03:13:46;;;;;;;9.35;3.17;;;;;;;12.99;80.28;100366.09;2113651;28;20063;-81
2022/03/06 03:15:10;;;;;;;10.35;2.95;;;;;;;13.00;80.14;100350.19;2104890;28;20050;-81
2022/03/06 03:16:32;;;;;;;8.13;4.28;;;;;;;12.95;79.99;100333.41;2111578;28;20386;-78
2022/03/06 03:17:55;;;;;;;13.55;4.43;;;;;;;12.95;79.00;100306.91;2113569;28;20329;-79
2022/03/06 03:19:17;;;;;;;12.40;3.70;;;;;;;12.94;78.40;100291.91;2113602;28;20104;-80
2022/03/06 03:20:40;;;;;;;13.65;3.15;;;;;;;12.93;78.02;100286.63;2107798;28;20431;-79
2022/03/06 03:22:03;;;;;;;12.32;4.38;;;;;;;12.97;77.69;100283.06;2104952;28;20488;-79
2022/03/06 03:23:27;;;;;;;12.10;3.63;;;;;;;12.98;77.51;100283.09;2113553;28;20042;-80
2022/03/06 03:24:49;;;;;;;11.40;3.15;;;;;;;12.98;77.05;100291.03;2113591;28;20078;-79
2022/03/06 03:26:11;;;;;;;12.52;2.30;;;;;;;13.00;76.88;100291.00;2105036;28;20125;-79
2022/03/06 03:27:34;;;;;;;11.38;2.92;;;;;;;13.03;76.47;100291.91;2110684;28;20039;-78
2022/03/06 03:28:55;;;;;;;9.75;2.63;;;;;;;13.07;75.69;100287.47;2113453;28;20082;-78
2022/03/06 03:30:20;;;;;;;9.70;3.20;;;;;;;13.12;75.06;100294.56;2113247;28;20048;-78
2022/03/06 03:31:41;;;;;;;12.80;3.65;;;;;;;13.21;74.26;100279.50;2113476;28;20376;-78
2022/03/06 03:33:04;;;;;;;9.95;2.95;;;;;;;13.28;74.25;100287.44;2113368;28;20047;-76
2022/03/06 03:34:25;;;;;;;12.45;3.08;;;;;;;13.34;74.53;100290.06;2107584;28;20135;-78
2022/03/06 03:35:47;;;;;;;10.27;2.72;;;;;;;13.39;74.92;100290.94;2112988;28;20075;-77
2022/03/06 03:37:11;;;;;;;6.75;2.53;;;;;;;13.45;74.80;100269.72;2113165;28;20163;-77
2022/03/06 03:38:33;;;;;;;14.27;3.38;;;;;;;13.52;75.03;100273.22;2104888;28;20040;-77
2022/03/06 03:39:56;;;;;;;6.40;2.72;;;;;;;13.59;75.24;100297.97;2119098;27;20138;-78
2022/03/06 03:41:19;;;;;;;12.45;3.13;;;;;;;13.64;75.31;100301.47;2107483;28;20040;-78
2022/03/06 03:42:43;;;;;;;7.10;1.92;;;;;;;13.64;75.03;100310.31;2102391;28;20085;-78
2022/03/06 03:44:05;;;;;;;8.93;2.53;;;;;;;13.65;74.78;100298.81;2110937;28;20044;-78
2022/03/06 03:45:28;;;;;;;8.23;3.00;;;;;;;13.69;74.08;100302.31;2104828;28;20051;-77
2022/03/06 03:46:49;;;;;;;15.75;2.65;;;;;;;13.74;73.66;100312.00;2104781;28;20394;-78
2022/03/06 03:48:11;;;;;;;7.60;2.17;;;;;;;13.76;73.73;100330.59;2110249;28;20379;-77
2022/03/06 03:49:33;;;;;;;8.43;2.78;;;;;;;13.77;74.23;100332.34;2113067;28;20096;-77
2022/03/06 03:50:56;;;;;;;8.38;2.75;;;;;;;13.79;74.38;100307.56;2104592;28;20044;-77
2022/03/06 03:52:20;;;;;;;5.30;2.22;;;;;;;13.85;74.32;100325.22;2093826;28;20491;-76
2022/03/06 03:53:42;;;;;;;11.50;2.85;;;;;;;13.88;73.87;100341.13;2100000;28;20571;-77
2022/03/06 03:55:06;;;;;;;11.13;2.83;;;;;;;13.93;73.41;100326.06;2101674;28;20094;-77
2022/03/06 03:56:27;;;;;;;8.43;2.40;;;;;;;13.94;72.82;100346.41;2110777;28;20063;-76
2022/03/06 03:57:49;;;;;;;6.70;2.25;;;;;;;13.94;72.77;100347.28;2112790;28;20502;-77
2022/03/06 03:59:11;;;;;;;7.97;2.50;;;;;;;13.93;73.03;100347.28;2104541;28;20138;-77
2022/03/06 04:00:33;;;;;;;7.70;2.67;;;;;;;13.94;73.41;100357.03;2110157;28;20490;-76
2022/03/06 04:01:56;;;;;;;10.05;2.35;;;;;;;13.94;73.59;100362.34;2104307;28;20048;-76
2022/03/06 04:03:18;;;;;;;6.13;2.00;;;;;;;13.94;73.64;100375.59;2109939;28;20039;-76
2022/03/06 04:04:41;;;;;;;6.10;2.15;;;;;;;13.93;73.81;100381.78;2104385;28;20503;-75
2022/03/06 04:06:04;;;;;;;12.90;2.13;;;;;;;13.91;73.78;100389.75;2110565;28;20050;-75
2022/03/06 04:07:28;;;;;;;6.65;2.10;;;;;;;13.90;74.01;100390.66;2104335;28;20446;-76
2022/03/06 04:08:50;;;;;;;11.98;2.90;;;;;;;13.86;74.03;100380.03;2102164;28;20074;-75
2022/03/06 04:10:12;;;;;;;10.48;3.65;;;;;;;13.87;73.50;100380.06;2101724;28;20135;-76
2022/03/06 04:11:33;;;;;;;10.05;3.13;;;;;;;13.88;73.06;100380.94;2101695;28;20108;-74
2022/03/06 04:12:56;;;;;;;4.78;1.58;;;;;;;13.91;71.67;100386.25;2109979;28;20054;-76
2022/03/06 04:14:19;;;;;;;10.15;1.40;;;;;;;13.89;71.63;100398.63;2104480;28;20044;-76
2022/03/06 04:15:41;;;;;;;5.13;1.58;;;;;;;13.92;71.74;100396.81;2110256;28;20051;-75
2022/03/06 04:17:03;;;;;;;3.90;1.13;;;;;;;13.93;71.87;100405.69;2112471;28;20052;-76
2022/03/06 04:18:25;;;;;;;3.42;1.98;;;;;;;13.90;71.96;100405.69;2112914;28;20368;-75
2022/03/06 04:19:47;;;;;;;11.40;3.13;;;;;;;13.90;72.40;100392.44;2112710;28;20055;-76
2022/03/06 04:21:10;;;;;;;4.00;1.38;;;;;;;13.87;72.71;100393.31;2104525;28;20058;-75
2022/03/06 04:22:34;;;;;;;8.82;1.73;;;;;;;13.87;72.96;100392.44;2104325;28;20040;-76
2022/03/06 04:23:56;;;;;;;6.47;2.30;;;;;;;13.86;72.75;100394.19;2104501;28;20044;-75
2022/03/06 04:25:18;;;;;;;13.20;4.03;;;;;;;13.87;72.68;100397.75;2101687;28;20089;-75
2022/03/06 04:26:40;;;;;;;8.63;1.90;;;;;;;13.85;72.72;100388.88;2109894;28;20040;-75
2022/03/06 04:28:02;;;;;;;3.03;1.90;;;;;;;13.82;72.76;100397.75;2112690;28;20048;-75
2022/03/06 04:29:24;;;;;;;7.00;1.90;;;;;;;13.80;72.96;100394.22;2112655;28;20054;-75
2022/03/06 04:30:46;;;;;;;3.10;1.05;;;;;;;13.80;72.98;100388.03;2112581;28;20043;-75
2022/03/06 04:32:09;;;;;;;6.90;1.85;;;;;;;13.78;72.93;100401.31;2104371;28;20044;-75
2022/03/06 04:33:30;;;;;;;10.25;2.45;;;;;;;13.77;73.06;100399.56;2101820;28;20524;-76
2022/03/06 04:34:53;;;;;;;4.80;1.23;;;;;;;13.76;72.81;100402.22;2109917;28;20075;-76
2022/03/06 04:36:16;;;;;;;6.22;1.52;;;;;;;13.75;73.01;100398.66;2106861;28;20097;-75
2022/03/06 04:37:40;;;;;;;8.00;2.05;;;;;;;13.73;73.07;100405.75;2102278;28;20114;-75
2022/03/06 04:39:04;;;;;;;6.38;1.80;;;;;;;13.70;73.14;100418.16;2104159;28;20051;-75
2022/03/06 04:40:25;;;;;;;3.65;1.40;;;;;;;13.68;73.32;100419.91;2104471;28;20107;-75
2022/03/06 04:41:48;;;;;;;5.80;2.33;;;;;;;13.65;73.30;100422.59;2109992;28;20138;-75
2022/03/06 04:43:11;;;;;;;4.82;1.70;;;;;;;13.62;73.27;100417.28;2104455;28;20052;-75
2022/03/06 04:44:34;;;;;;;3.28;1.58;;;;;;;13.59;73.55;100425.25;2101692;28;20065;-75
2022/03/06 04:45:56;;;;;;;4.45;1.70;;;;;;;13.55;73.51;100427.91;2104394;28;20171;-75
2022/03/06 04:47:17;;;;;;;3.28;1.27;;;;;;;13.55;73.46;100424.38;2109962;28;20150;-75
2022/03/06 04:48:40;;;;;;;5.18;1.75;;;;;;;13.53;73.54;100442.91;2106747;28;20357;-75
2022/03/06 04:50:03;;;;;;;5.00;1.55;;;;;;;13.51;73.75;100434.09;2110013;28;20479;-75
2022/03/06 04:51:26;;;;;;;2.65;0.93;;;;;;;13.52;73.78;100445.59;2112818;28;20530;-75
2022/03/06 04:52:48;;;;;;;6.05;1.45;;;;;;;13.51;73.89;100444.72;2104157;28;20097;-75
2022/03/06 04:54:11;;;;;;;5.70;2.33;;;;;;;13.51;74.15;100443.84;2101759;28;20050;-75
2022/03/06 04:55:34;;;;;;;3.60;1.70;;;;;;;13.50;73.94;100437.63;2109700;28;20486;-75
2022/03/06 04:56:55;;;;;;;5.97;2.08;;;;;;;13.51;73.94;100443.84;2112591;28;20044;-75
2022/03/06 04:58:18;;;;;;;2.33;1.52;;;;;;;13.51;73.90;100446.47;2112441;28;20513;-75
2022/03/06 04:59:42;;;;;;;8.13;1.90;;;;;;;13.51;74.13;100447.38;2104204;28;20046;-75
2022/03/06 05:01:05;;;;;;;7.18;1.48;;;;;;;13.50;73.97;100437.63;2110280;28;20425;-75
2022/03/06 05:02:27;;;;;;;5.03;2.15;;;;;;;13.50;74.13;100432.34;2104250;28;20112;-75
2022/03/06 05:03:49;;;;;;;6.18;1.50;;;;;;;13.50;73.86;100436.75;2106912;28;20104;-75
2022/03/06 05:05:11;;;;;;;4.80;2.15;;;;;;;13.50;73.72;100437.63;2109960;28;20051;-76
2022/03/06 05:06:34;;;;;;;8.07;2.10;;;;;;;13.51;73.83;100436.75;2106791;28;20036;-75
2022/03/06 05:07:58;;;;;;;7.90;2.83;;;;;;;13.53;73.86;100434.97;2112579;28;20146;-75
2022/03/06 05:09:19;;;;;;;3.35;1.05;;;;;;;13.54;73.78;100434.09;2104105;28;20048;-75
2022/03/06 05:10:42;;;;;;;13.45;1.92;;;;;;;13.57;73.94;100447.34;2101624;28;20048;-75
2022/03/06 05:12:05;;;;;;;10.85;1.55;;;;;;;13.60;73.91;100440.25;2101434;28;20442;-74
2022/03/06 05:13:27;;;;;;;2.22;2.03;;;;;;;13.59;73.88;100444.69;2101417;28;20040;-75
2022/03/06 05:14:49;;;;;;;23.52;3.13;;;;;;;13.61;73.68;100442.91;2104014;28;20036;-75
2022/03/06 05:16:13;;;;;;;5.07;1.83;;;;;;;13.64;73.97;100437.63;2101368;28;20135;-75
2022/03/06 05:17:35;;;;;;;4.35;2.00;;;;;;;13.66;73.93;100438.47;2101312;28;20134;-76
2022/03/06 05:18:57;;;;;;;8.80;1.83;;;;;;;13.70;74.08;100447.31;2109796;28;20138;-76
2022/03/06 05:20:19;;;;;;;7.13;2.10;;;;;;;13.72;73.66;100438.47;2112185;28;20044;-75
2022/03/06 05:21:42;;;;;;;11.00;2.88;;;;;;;13.78;73.74;100450.84;2104068;28;20135;-75
2022/03/06 05:23:06;;;;;;;10.77;2.00;;;;;;;13.80;73.63;100457.00;2109803;28;20039;-75
2022/03/06 05:24:29;;;;;;;7.10;2.33;;;;;;;13.81;73.50;100462.31;2104072;28;20044;-75
2022/03/06 05:25:54;;;;;;;7.40;2.03;;;;;;;13.82;73.65;100464.09;2109869;28;20483;-75
2022/03/06 05:27:17;;;;;;;2.55;1.65;;;;;;;13.86;73.79;100475.56;2104243;28;20341;-76
2022/03/06 05:28:41;;;;;;;6.35;2.45;;;;;;;13.88;73.75;100469.38;2101150;28;20036;-75
2022/03/06 05:30:04;;;;;;;5.80;1.40;;;;;;;13.94;72.92;100500.31;2093339;28;20067;-75
2022/03/06 05:31:27;;;;;;;6.03;1.90;;;;;;;13.94;72.45;100508.28;2110105;28;20447;-75
2022/03/06 05:32:50;;;;;;;3.63;1.20;;;;;;;13.94;72.41;100509.16;2112148;28;20044;-75
2022/03/06 05:34:12;;;;;;;12.27;6.07;;;;;;;13.97;72.51;100500.34;2106704;28;20539;-75
2022/03/06 05:35:35;;;;;;;2.88;1.40;;;;;;;14.00;72.00;100496.75;2109342;28;20050;-74
2022/03/06 05:36:57;;;;;;;4.13;1.80;;;;;;;14.03;71.78;100505.63;2112171;28;20054;-75
2022/03/06 05:38:21;;;;;;;8.82;2.00;;;;;;;14.07;72.05;100509.13;2095455;28;20133;-74
2022/03/06 05:39:44;;;;;;;6.70;1.77;;;;;;;14.07;71.84;100499.41;2107558;28;20114;-75
2022/03/06 05:41:07;;;;;;;6.22;1.77;;;;;;;14.10;72.09;100506.50;2104042;28;20203;-75
2022/03/06 05:42:30;;;;;;;8.77;1.50;;;;;;;14.11;72.09;100511.75;2101199;28;20043;-74
2022/03/06 05:43:52;;;;;;;6.28;1.67;;;;;;;14.13;72.12;100517.06;2112310;28;20052;-75
2022/03/06 05:45:15;;;;;;;2.35;1.17;;;;;;;14.11;72.16;100518.88;2106565;28;20040;-75
2022/03/06 05:46:36;;;;;;;11.55;4.03;;;;;;;14.13;72.14;100520.63;2112355;28;20075;-75
2022/03/06 05:48:00;;;;;;;10.77;3.20;;;;;;;14.19;71.98;100520.59;2112160;28;20070;-75
2022/03/06 05:49:21;;;;;;;4.45;1.85;;;;;;;14.21;71.30;100516.19;2106269;28;20632;-77
2022/03/06 05:50:44;;;;;;;5.93;1.75;;;;;;;14.22;70.46;100522.38;2103869;28;20044;-75
2022/03/06 05:52:06;;;;;;;5.57;2.25;;;;;;;14.26;70.45;100527.66;2112287;28;20380;-75
2022/03/06 05:53:30;;;;;;;;;;;;;;;14.33;70.84;100528.53;2106656;28;20130;-75
2022/03/06 05:54:51;;;;;;;6.28;3.13;;;;;;;14.43;70.65;100530.31;2109715;28;19927;-75
2022/03/06 05:56:14;;;;;;;15.23;2.55;;;;;;;14.54;70.44;100535.56;2103652;28;20040;-75
2022/03/06 05:57:37;;;;;;;5.38;1.80;;;;;;;14.67;70.71;100524.88;2109552;28;20043;-75
2022/03/06 05:59:00;;;;;;;9.00;2.17;;;;;;;14.82;70.83;100531.88;2106405;28;20113;-75
2022/03/06 06:00:22;;;;;;;12.10;3.22;;;;;;;14.95;70.78;100533.59;2106449;28;20068;-76
2022/03/06 06:01:45;;;;;;;8.73;2.63;;;;;;;15.12;70.66;100534.34;2103512;28;20123;-76
2022/03/06 06:03:07;;;;;;;8.52;2.03;;;;;;;15.27;70.65;100536.03;2103946;28;20131;-75
2022/03/06 06:04:30;;;;;;;5.60;1.75;;;;;;;15.42;70.49;100532.38;2101085;28;20044;-75
2022/03/06 06:05:52;;;;;;;2.88;0.82;;;;;;;15.53;70.16;100525.22;2109924;28;20117;-75
2022/03/06 06:07:14;;;;;;;5.55;1.55;;;;;;;15.67;70.41;100539.28;2103621;28;20123;-75
2022/03/06 06:08:38;;;;;;;9.48;3.97;;;;;;;15.80;69.18;100535.63;2100955;28;20048;-75
2022/03/06 06:10:01;;;;;;;4.07;1.50;;;;;;;15.88;68.53;100533.75;2103661;28;20096;-75
2022/03/06 06:11:24;;;;;;;5.32;1.55;;;;;;;15.98;68.17;100533.66;2111988;28;20047;-75
2022/03/06 06:12:47;;;;;;;7.88;2.10;;;;;;;16.12;67.90;100532.63;2103650;28;20051;-75
2022/03/06 06:14:09;;;;;;;3.70;1.20;;;;;;;16.25;67.36;100533.38;2106397;28;20044;-75
2022/03/06 06:15:32;;;;;;;4.70;1.77;;;;;;;16.35;67.21;100538.56;2109319;28;20036;-75
2022/03/06 06:16:55;;;;;;;7.95;1.90;;;;;;;16.51;66.70;100539.28;2106147;28;20047;-76
2022/03/06 06:18:18;;;;;;;4.90;1.70;;;;;;;16.61;66.10;100532.94;2109662;28;20062;-75
2022/03/06 06:19:41;;;;;;;8.80;2.45;;;;;;;16.77;66.00;100532.75;2103695;28;20036;-75
2022/03/06 06:21:04;;;;;;;9.20;3.63;;;;;;;16.90;66.18;100524.56;2112134;28;20435;-76
2022/03/06 06:22:28;;;;;;;12.90;3.20;;;;;;;17.03;66.02;100523.50;2111904;28;20074;-76